Time;durP1;ratioP1;P1;durP2;ratioP2;P2;SDS_P1;SDS_P2;PMS_P1;PMS_P2;Temp;Humidity;BMP_temperature;BMP_pressure;BME280_temperature;BME280_humidity;BME280_pressure;Samples;Min_cycle;Max_cycle;Signal;HPM_P1;HPM_P2
2023/08/22 04:32:01;;;;;;;0.10;0.10;;;20.00;80.90;;;;;;5215854;23;20084;-78
2023/08/22 04:34:26;;;;;;;0.08;0.08;;;20.00;81.00;;;;;;5000199;28;20061;-79
2023/08/22 04:36:52;;;;;;;0.00;0.00;;;20.00;81.00;;;;;;4999145;28;20369;-78
2023/08/22 04:39:18;;;;;;;0.00;0.00;;;20.00;80.90;;;;;;5000318;28;20061;-78
2023/08/22 04:41:43;;;;;;;0.10;0.10;;;19.90;81.00;;;;;;5000274;28;20045;-78
2023/08/22 04:44:09;;;;;;;0.00;0.00;;;19.90;81.00;;;;;;4999049;28;20022;-78
2023/08/22 04:46:34;;;;;;;0.00;0.00;;;19.90;81.10;;;;;;5000098;28;20073;-78
2023/08/22 04:49:00;;;;;;;0.00;0.00;;;19.90;81.30;;;;;;4999955;28;20481;-78
2023/08/22 04:51:26;;;;;;;0.00;0.00;;;19.90;81.40;;;;;;4998562;28;20054;-78
2023/08/22 04:53:52;;;;;;;0.00;0.00;;;20.00;81.40;;;;;;4998856;28;20026;-78
2023/08/22 04:56:18;;;;;;;0.00;0.00;;;19.80;81.50;;;;;;5000162;28;20038;-78
2023/08/22 04:58:43;;;;;;;0.05;0.05;;;19.90;81.30;;;;;;4999874;28;20045;-78
2023/08/22 05:01:09;;;;;;;0.10;0.10;;;19.90;81.50;;;;;;4998698;28;20029;-78
2023/08/22 05:03:34;;;;;;;0.10;0.10;;;19.90;81.40;;;;;;5000306;28;20436;-78
2023/08/22 05:06:00;;;;;;;0.10;0.10;;;19.90;81.40;;;;;;5000475;28;20109;-78
2023/08/22 05:08:26;;;;;;;0.10;0.10;;;19.90;81.40;;;;;;5015015;28;20033;-79
2023/08/22 05:10:51;;;;;;;0.00;0.00;;;19.90;81.30;;;;;;5000409;28;20027;-78
2023/08/22 05:13:17;;;;;;;0.10;0.10;;;19.90;81.50;;;;;;5000471;28;20034;-78
2023/08/22 05:15:43;;;;;;;0.10;0.10;;;19.90;81.40;;;;;;5000221;28;20019;-78
2023/08/22 05:18:08;;;;;;;0.10;0.10;;;19.90;81.40;;;;;;4998458;28;20030;-78
2023/08/22 05:20:34;;;;;;;0.00;0.00;;;19.90;81.30;;;;;;5000332;28;20105;-78
2023/08/22 05:23:00;;;;;;;0.10;0.10;;;19.80;81.50;;;;;;4999966;28;20023;-78
2023/08/22 05:25:26;;;;;;;0.10;0.10;;;19.80;81.40;;;;;;4999880;28;20121;-78
2023/08/22 05:27:51;;;;;;;0.10;0.10;;;19.80;81.60;;;;;;4999990;28;20030;-78
2023/08/22 05:30:17;;;;;;;0.00;0.00;;;19.80;81.60;;;;;;5014728;28;20426;-78
2023/08/22 05:32:43;;;;;;;0.03;0.03;;;19.90;81.60;;;;;;5014887;28;20175;-78
2023/08/22 05:35:09;;;;;;;0.00;0.00;;;19.80;81.60;;;;;;4999771;28;20094;-78
2023/08/22 05:37:35;;;;;;;0.00;0.00;;;19.90;81.60;;;;;;4984704;28;20829;-78
2023/08/22 05:40:01;;;;;;;0.00;0.00;;;19.90;81.50;;;;;;4980516;28;20503;-79
2023/08/22 05:42:26;;;;;;;0.00;0.00;;;19.90;81.60;;;;;;4980518;28;20073;-78
2023/08/22 05:44:52;;;;;;;0.00;0.00;;;19.90;81.50;;;;;;4981011;28;20023;-79
2023/08/22 05:47:17;;;;;;;0.10;0.10;;;20.00;81.60;;;;;;4980304;28;20038;-79
2023/08/22 05:49:44;;;;;;;0.08;0.08;;;19.90;81.50;;;;;;4978678;28;20030;-79
2023/08/22 05:52:09;;;;;;;0.00;0.00;;;20.00;81.30;;;;;;4980278;28;20086;-79
2023/08/22 05:54:35;;;;;;;0.00;0.00;;;20.00;81.30;;;;;;4979881;28;20027;-79
2023/08/22 05:57:00;;;;;;;0.00;0.00;;;20.10;81.10;;;;;;4978843;28;20038;-79
2023/08/22 05:59:26;;;;;;;0.10;0.10;;;20.10;81.20;;;;;;4980461;28;20030;-79
2023/08/22 06:01:52;;;;;;;0.00;0.00;;;20.10;81.30;;;;;;4999249;28;20032;-79
2023/08/22 06:04:18;;;;;;;0.05;0.05;;;20.10;81.10;;;;;;4999324;28;20058;-79
2023/08/22 06:06:44;;;;;;;0.08;0.08;;;20.20;81.10;;;;;;4999281;28;20026;-79
2023/08/22 06:09:11;;;;;;;0.10;0.10;;;20.20;81.00;;;;;;4999321;28;20018;-79
2023/08/22 06:11:36;;;;;;;0.03;0.03;;;20.30;80.90;;;;;;4999346;28;20030;-79
2023/08/22 06:14:02;;;;;;;0.00;0.00;;;20.30;80.90;;;;;;4999150;28;20029;-79
2023/08/22 06:16:28;;;;;;;0.10;0.10;;;20.30;80.90;;;;;;4999316;28;20430;-79
2023/08/22 06:18:53;;;;;;;0.10;0.10;;;20.30;80.90;;;;;;4999208;28;20065;-79
2023/08/22 06:21:19;;;;;;;0.10;0.10;;;20.30;80.90;;;;;;4998910;28;20108;-79
2023/08/22 06:23:45;;;;;;;0.05;0.05;;;20.30;80.80;;;;;;5014063;28;20117;-79
2023/08/22 06:26:11;;;;;;;0.00;0.00;;;20.30;81.00;;;;;;4999073;28;20468;-79
2023/08/22 06:28:36;;;;;;;0.10;0.10;;;20.40;81.00;;;;;;4998886;28;20034;-79
2023/08/22 06:31:03;;;;;;;0.10;0.10;;;20.50;80.90;;;;;;4996965;28;20434;-79
2023/08/22 06:33:29;;;;;;;0.10;0.10;;;20.50;80.70;;;;;;4998664;28;20022;-79
2023/08/22 06:35:54;;;;;;;0.10;0.10;;;20.60;80.70;;;;;;4997540;28;20026;-79
2023/08/22 06:38:20;;;;;;;0.10;0.10;;;20.60;80.60;;;;;;4998690;28;20496;-79
2023/08/22 06:40:46;;;;;;;0.00;0.00;;;20.70;80.50;;;;;;4997172;28;20034;-79
2023/08/22 06:43:11;;;;;;;0.10;0.10;;;20.70;80.40;;;;;;4998772;28;20034;-79
2023/08/22 06:45:37;;;;;;;0.10;0.10;;;20.70;80.50;;;;;;4998906;28;20109;-79
2023/08/22 06:48:03;;;;;;;0.10;0.10;;;20.70;80.40;;;;;;4998632;28;20109;-79
2023/08/22 06:50:30;;;;;;;0.10;0.10;;;20.80;80.40;;;;;;4998779;28;20043;-79
2023/08/22 06:52:55;;;;;;;0.05;0.05;;;20.80;80.30;;;;;;4998585;28;20046;-79
2023/08/22 06:55:21;;;;;;;0.08;0.08;;;20.80;80.10;;;;;;4998694;28;20030;-79
2023/08/22 06:57:46;;;;;;;0.00;0.00;;;20.90;80.00;;;;;;4998963;28;20025;-79
2023/08/22 07:00:16;;;;;;;0.05;0.05;;;20.90;79.80;;;;;;4998457;28;20026;-79
2023/08/22 07:02:44;;;;;;;0.05;0.05;;;20.90;79.90;;;;;;4998614;28;20053;-79
2023/08/22 07:05:10;;;;;;;0.00;0.00;;;20.90;79.70;;;;;;4997523;28;20034;-79
2023/08/22 07:07:37;;;;;;;0.10;0.10;;;20.90;79.50;;;;;;4997233;28;20388;-79
2023/08/22 07:10:06;;;;;;;0.08;0.08;;;20.90;79.60;;;;;;4996933;28;20029;-79
2023/08/22 07:12:32;;;;;;;0.00;0.00;;;20.90;79.60;;;;;;4998611;28;20030;-79
2023/08/22 07:14:57;;;;;;;0.03;0.03;;;21.00;79.40;;;;;;4998574;28;20109;-79
2023/08/22 07:17:23;;;;;;;0.10;0.10;;;21.00;79.40;;;;;;4997295;28;20022;-79
2023/08/22 07:19:49;;;;;;;0.00;0.00;;;21.00;79.30;;;;;;4996960;28;20121;-79
2023/08/22 07:22:14;;;;;;;0.00;0.00;;;21.00;79.20;;;;;;4998278;28;20085;-79
2023/08/22 07:24:40;;;;;;;0.00;0.00;;;21.10;79.30;;;;;;4998524;28;20030;-79
2023/08/22 07:27:06;;;;;;;0.10;0.10;;;21.10;79.10;;;;;;4997452;28;20031;-79
2023/08/22 07:29:32;;;;;;;0.00;0.00;;;21.20;78.80;;;;;;4998197;28;20022;-79
2023/08/22 07:31:58;;;;;;;0.00;0.00;;;21.20;78.60;;;;;;4998045;28;20053;-79
2023/08/22 07:34:24;;;;;;;0.10;0.10;;;21.30;78.50;;;;;;4998225;28;20116;-79
2023/08/22 07:36:51;;;;;;;0.10;0.10;;;21.30;78.20;;;;;;4983378;28;21113;-79
2023/08/22 07:39:17;;;;;;;0.10;0.10;;;21.60;77.60;;;;;;4978747;28;20034;-79
2023/08/22 07:41:43;;;;;;;0.10;0.10;;;21.70;77.10;;;;;;4979566;28;20112;-79
2023/08/22 07:44:09;;;;;;;0.10;0.10;;;21.80;76.80;;;;;;4982637;28;20509;-79
2023/08/22 07:46:34;;;;;;;0.10;0.10;;;21.90;76.10;;;;;;4980974;28;20057;-79
2023/08/22 07:49:00;;;;;;;0.00;0.00;;;22.20;75.40;;;;;;4982523;28;20031;-79
2023/08/22 07:51:26;;;;;;;0.00;0.00;;;22.40;74.70;;;;;;4981041;28;20022;-79
2023/08/22 07:53:52;;;;;;;0.10;0.10;;;23.00;73.20;;;;;;4982498;28;20031;-79
2023/08/22 07:56:18;;;;;;;0.00;0.00;;;23.80;71.00;;;;;;4982280;28;20019;-80
2023/08/22 07:58:43;;;;;;;0.10;0.10;;;24.70;67.90;;;;;;4982350;28;20366;-79
2023/08/22 08:01:09;;;;;;;0.00;0.00;;;25.70;65.30;;;;;;4996217;28;20069;-80
2023/08/22 08:03:35;;;;;;;0.00;0.00;;;26.60;62.50;;;;;;5001266;28;20030;-80
2023/08/22 08:06:00;;;;;;;0.10;0.10;;;27.40;59.90;;;;;;5001579;28;20027;-79
2023/08/22 08:08:26;;;;;;;0.10;0.10;;;28.30;57.50;;;;;;5001384;28;20113;-79
2023/08/22 08:10:52;;;;;;;0.10;0.10;;;29.60;54.40;;;;;;5001638;28;20391;-79
2023/08/22 08:13:17;;;;;;;0.30;0.30;;;31.00;50.70;;;;;;5001598;28;20105;-80
2023/08/22 08:15:43;;;;;;;0.30;0.30;;;32.10;47.60;;;;;;5001612;28;20027;-80
2023/08/22 08:18:10;;;;;;;0.40;0.40;;;33.00;45.90;;;;;;5016524;28;20026;-80
2023/08/22 08:20:36;;;;;;;0.40;0.40;;;33.70;44.80;;;;;;5001810;28;20019;-80
2023/08/22 08:23:02;;;;;;;0.40;0.40;;;34.10;43.20;;;;;;5001524;28;20033;-80
2023/08/22 08:25:29;;;;;;;0.40;0.40;;;34.10;42.20;;;;;;5001253;28;20433;-80
2023/08/22 08:27:55;;;;;;;0.30;0.30;;;33.70;43.50;;;;;;5001241;28;20019;-79
2023/08/22 08:30:21;;;;;;;0.20;0.20;;;32.80;45.00;;;;;;4999773;28;20022;-79
2023/08/22 08:32:46;;;;;;;0.10;0.10;;;31.60;46.50;;;;;;5001092;28;20113;-79
2023/08/22 08:35:12;;;;;;;0.00;0.00;;;30.80;49.10;;;;;;4999812;28;20033;-79
2023/08/22 08:37:38;;;;;;;0.00;0.00;;;30.50;48.90;;;;;;5000938;28;20033;-79
2023/08/22 08:40:07;;;;;;;0.00;0.00;;;30.30;49.40;;;;;;5001063;28;20116;-79
2023/08/22 08:42:36;;;;;;;0.10;0.10;;;30.40;49.00;;;;;;5000965;28;20033;-79
2023/08/22 08:45:04;;;;;;;0.40;0.40;;;31.10;48.00;;;;;;5000899;28;20038;-79
2023/08/22 08:47:32;;;;;;;0.40;0.40;;;32.00;46.90;;;;;;5000765;28;20029;-79
2023/08/22 08:50:00;;;;;;;0.40;0.40;;;32.60;45.30;;;;;;5000925;28;20473;-80
2023/08/22 08:52:27;;;;;;;0.40;0.40;;;33.00;45.00;;;;;;4999869;28;20559;-80
2023/08/22 08:54:58;;;;;;;0.10;0.10;;;33.10;44.40;;;;;;5000834;28;20065;-79
2023/08/22 08:57:23;;;;;;;0.00;0.00;;;32.90;44.90;;;;;;5000611;28;20018;-79
2023/08/22 08:59:49;;;;;;;0.10;0.10;;;32.50;45.30;;;;;;4998962;28;20068;-79
2023/08/22 09:02:16;;;;;;;0.00;0.00;;;31.90;46.40;;;;;;5000412;28;20033;-79
2023/08/22 09:04:42;;;;;;;0.20;0.20;;;31.60;47.20;;;;;;5000759;28;20023;-79
2023/08/22 09:07:08;;;;;;;0.00;0.00;;;31.40;47.10;;;;;;5000470;28;20469;-79
2023/08/22 09:09:37;;;;;;;0.10;0.10;;;31.40;48.00;;;;;;5000574;28;20078;-79
2023/08/22 09:12:08;;;;;;;0.00;0.00;;;31.80;46.90;;;;;;5000333;28;20429;-79
2023/08/22 09:14:34;;;;;;;0.00;0.00;;;32.00;46.80;;;;;;4999258;28;20022;-79
2023/08/22 09:17:02;;;;;;;0.00;0.00;;;32.30;45.60;;;;;;5000345;28;20030;-79
2023/08/22 09:19:34;;;;;;;0.13;0.13;;;32.70;45.00;;;;;;4999137;28;20081;-79
2023/08/22 09:22:02;;;;;;;0.30;0.30;;;33.20;43.80;;;;;;5000406;28;20460;-79
2023/08/22 09:24:30;;;;;;;0.50;0.50;;;33.60;43.20;;;;;;5000500;28;20065;-79
2023/08/22 09:26:56;;;;;;;0.50;0.50;;;34.10;42.20;;;;;;4998511;28;20102;-80
2023/08/22 09:29:27;;;;;;;0.45;0.45;;;34.50;41.80;;;;;;4979146;28;20026;-80
2023/08/22 09:32:11;;;;;;;0.20;0.20;;;34.80;40.70;;;;;;4983260;28;20065;-79
2023/08/22 09:34:37;;;;;;;0.10;0.10;;;34.80;40.30;;;;;;4996672;28;20026;-80
2023/08/22 09:37:03;;;;;;;0.00;0.00;;;34.70;41.20;;;;;;4998559;28;20030;-79
2023/08/22 09:39:33;;;;;;;0.40;0.40;;;34.30;41.70;;;;;;4999661;28;20022;-79
2023/08/22 09:41:59;;;;;;;0.40;0.40;;;33.90;42.40;;;;;;4999887;28;20026;-79
2023/08/22 09:44:25;;;;;;;0.30;0.30;;;33.70;42.80;;;;;;4999940;28;20133;-79
2023/08/22 09:46:52;;;;;;;0.10;0.10;;;33.40;42.70;;;;;;4998673;28;20046;-79
2023/08/22 09:49:19;;;;;;;0.30;0.30;;;33.70;43.00;;;;;;4999552;28;20034;-79
2023/08/22 09:51:46;;;;;;;0.10;0.10;;;33.80;41.90;;;;;;4999720;28;20053;-79
2023/08/22 09:54:13;;;;;;;0.00;0.00;;;33.80;42.60;;;;;;4999929;28;20079;-79
2023/08/22 09:56:40;;;;;;;0.03;0.03;;;33.60;43.80;;;;;;4999437;28;20026;-80
2023/08/22 09:59:06;;;;;;;0.00;0.00;;;32.90;43.60;;;;;;4999361;28;20390;-79
2023/08/22 10:01:37;;;;;;;0.00;0.00;;;32.10;44.40;;;;;;4980728;28;20045;-79
2023/08/22 10:04:03;;;;;;;0.00;0.00;;;31.30;47.40;;;;;;4977959;28;20042;-79
2023/08/22 10:06:33;;;;;;;0.00;0.00;;;30.60;47.00;;;;;;4978070;28;20031;-79
2023/08/22 10:09:06;;;;;;;0.10;0.10;;;30.00;48.20;;;;;;4979730;28;20488;-79
2023/08/22 10:11:33;;;;;;;0.00;0.00;;;29.70;49.40;;;;;;4979675;28;20045;-78
2023/08/22 10:13:58;;;;;;;0.00;0.00;;;29.40;50.60;;;;;;4979834;28;20022;-78
2023/08/22 10:16:29;;;;;;;0.00;0.00;;;29.20;50.20;;;;;;4981622;28;20516;-79
2023/08/22 10:19:02;;;;;;;0.00;0.00;;;29.00;51.70;;;;;;4988104;28;20026;-78
2023/08/22 10:21:32;;;;;;;0.00;0.00;;;28.80;51.60;;;;;;4979632;28;20026;-79
2023/08/22 10:23:58;;;;;;;0.10;0.10;;;28.80;51.00;;;;;;4979651;28;20102;-78
2023/08/22 10:26:49;;;;;;;0.45;0.45;;;28.80;51.00;;;;;;4979746;28;20031;-79
2023/08/22 10:29:17;;;;;;;0.00;0.00;;;28.90;51.50;;;;;;4979580;28;20074;-79
2023/08/22 10:32:01;;;;;;;0.00;0.00;;;28.80;52.00;;;;;;4980850;28;20046;-79
2023/08/22 10:34:39;;;;;;;0.00;0.00;;;28.70;50.60;;;;;;4999337;28;20034;-78
2023/08/22 10:37:19;;;;;;;0.00;0.00;;;28.60;51.20;;;;;;4998727;28;20030;-79
2023/08/22 10:39:47;;;;;;;0.10;0.10;;;28.60;51.00;;;;;;4997511;28;20026;-78
2023/08/22 10:42:20;;;;;;;0.00;0.00;;;28.50;50.90;;;;;;4998820;28;20038;-79
2023/08/22 10:44:49;;;;;;;0.00;0.00;;;28.40;51.10;;;;;;4998811;28;20488;-78
2023/08/22 10:47:16;;;;;;;0.00;0.00;;;28.30;51.70;;;;;;4998507;28;20031;-78
2023/08/22 10:49:42;;;;;;;0.00;0.00;;;28.30;51.40;;;;;;4981180;28;20041;-78
2023/08/22 10:52:11;;;;;;;0.00;0.00;;;28.30;52.60;;;;;;4998459;28;20030;-78
2023/08/22 10:54:56;;;;;;;0.00;0.00;;;28.30;52.70;;;;;;4998679;28;20381;-78
2023/08/22 10:57:21;;;;;;;0.00;0.00;;;28.30;52.50;;;;;;4998550;28;20026;-78
2023/08/22 10:59:59;;;;;;;0.00;0.00;;;28.30;52.60;;;;;;4997002;28;20022;-78
2023/08/22 11:02:29;;;;;;;0.00;0.00;;;28.30;53.20;;;;;;4998460;28;20096;-79
2023/08/22 11:04:56;;;;;;;0.00;0.00;;;28.40;51.90;;;;;;4997142;28;20117;-79
2023/08/22 11:07:22;;;;;;;0.00;0.00;;;28.30;53.00;;;;;;4998392;28;20026;-79
2023/08/22 11:09:48;;;;;;;0.05;0.05;;;28.30;53.30;;;;;;4998494;28;20030;-79
2023/08/22 11:12:21;;;;;;;0.00;0.00;;;28.30;53.60;;;;;;4998349;28;20034;-79
2023/08/22 11:14:48;;;;;;;0.00;0.00;;;28.30;53.50;;;;;;4998607;28;20470;-79
2023/08/22 11:17:18;;;;;;;0.20;0.10;;;28.30;53.00;;;;;;5001568;28;20038;-79
2023/08/22 11:19:45;;;;;;;0.00;0.00;;;28.30;52.90;;;;;;5002634;28;20050;-79
2023/08/22 11:22:11;;;;;;;0.00;0.00;;;28.30;53.10;;;;;;5002270;28;20030;-79
2023/08/22 11:24:44;;;;;;;0.00;0.00;;;28.20;54.00;;;;;;5002232;28;20026;-79
2023/08/22 11:27:12;;;;;;;0.08;0.08;;;28.20;53.30;;;;;;5002480;28;20085;-79
2023/08/22 11:29:45;;;;;;;0.00;0.00;;;28.20;53.60;;;;;;4997820;28;20029;-79
2023/08/22 11:32:26;;;;;;;;;;;28.30;54.10;;;;;;5002388;28;20050;-79
2023/08/22 11:34:57;;;;;;;0.00;0.00;;;28.30;52.50;;;;;;5002438;28;19906;-79
2023/08/22 11:37:27;;;;;;;0.00;0.00;;;28.40;53.00;;;;;;4993201;28;20034;-79
2023/08/22 11:39:53;;;;;;;0.00;0.00;;;28.30;53.80;;;;;;4982801;28;20026;-79
2023/08/22 11:42:20;;;;;;;0.00;0.00;;;28.30;52.40;;;;;;4982578;28;20031;-79
2023/08/22 11:45:08;;;;;;;0.00;0.00;;;28.30;53.80;;;;;;4982733;28;20105;-79
2023/08/22 11:50:00;;;;;;;0.00;0.00;;;28.30;53.40;;;;;;4999792;28;20022;-79
2023/08/22 11:52:29;;;;;;;0.00;0.00;;;28.30;54.20;;;;;;5001083;28;20061;-79
2023/08/22 11:55:05;;;;;;;0.00;0.00;;;28.30;54.00;;;;;;5002017;28;20453;-79
2023/08/22 11:57:32;;;;;;;0.00;0.00;;;28.30;54.20;;;;;;5001934;28;20018;-80
2023/08/22 12:00:04;;;;;;;0.10;0.10;;;28.20;54.70;;;;;;4996797;28;20386;-79
2023/08/22 12:02:29;;;;;;;0.00;0.00;;;28.20;54.80;;;;;;4989850;28;20018;-79
2023/08/22 12:04:55;;;;;;;0.00;0.00;;;28.20;54.40;;;;;;5001709;28;20026;-79
2023/08/22 12:07:24;;;;;;;0.00;0.00;;;28.20;54.50;;;;;;5001502;28;20395;-79
2023/08/22 12:09:59;;;;;;;0.00;0.00;;;28.10;54.70;;;;;;5001411;28;20504;-79
2023/08/22 12:12:25;;;;;;;0.00;0.00;;;28.10;54.20;;;;;;5001556;28;20038;-79
2023/08/22 12:14:51;;;;;;;0.08;0.08;;;28.20;53.70;;;;;;5000253;28;20389;-79
2023/08/22 12:17:18;;;;;;;0.00;0.00;;;28.20;53.90;;;;;;5001515;28;20030;-79
2023/08/22 12:19:44;;;;;;;0.00;0.00;;;28.30;54.20;;;;;;5001280;28;20019;-79
2023/08/22 12:22:10;;;;;;;0.00;0.00;;;28.20;53.90;;;;;;5001163;28;20031;-79
2023/08/22 12:24:35;;;;;;;0.10;0.10;;;28.20;54.40;;;;;;5016285;28;20440;-79
2023/08/22 12:27:01;;;;;;;0.00;0.00;;;28.30;54.50;;;;;;5015816;28;20031;-79
2023/08/22 12:29:27;;;;;;;0.08;0.08;;;28.30;54.20;;;;;;5000521;28;20081;-79
2023/08/22 12:31:52;;;;;;;0.00;0.00;;;28.30;53.30;;;;;;5000899;28;20552;-79
2023/08/22 12:34:18;;;;;;;0.05;0.05;;;28.30;52.70;;;;;;5001332;28;20137;-79
2023/08/22 12:36:44;;;;;;;0.00;0.00;;;28.30;54.00;;;;;;5001064;28;20026;-79
2023/08/22 12:39:10;;;;;;;0.10;0.10;;;28.30;53.10;;;;;;4999523;28;20076;-79
2023/08/22 12:41:39;;;;;;;0.05;0.05;;;28.30;53.30;;;;;;5001127;28;20038;-79
2023/08/22 12:44:05;;;;;;;0.10;0.10;;;28.30;52.80;;;;;;5000009;28;20085;-79
2023/08/22 12:46:31;;;;;;;0.00;0.00;;;28.30;53.20;;;;;;5000999;28;20034;-79
2023/08/22 12:48:56;;;;;;;0.00;0.00;;;28.30;53.30;;;;;;5000807;28;20026;-79
2023/08/22 12:51:22;;;;;;;0.10;0.10;;;28.40;53.70;;;;;;5000993;28;20022;-79
2023/08/22 12:53:48;;;;;;;0.00;0.00;;;28.50;52.90;;;;;;5000930;28;20058;-79
2023/08/22 12:56:14;;;;;;;0.10;0.10;;;28.30;52.70;;;;;;5000990;28;20088;-79
2023/08/22 12:58:41;;;;;;;0.00;0.00;;;28.30;53.90;;;;;;5000700;28;20027;-79
2023/08/22 13:01:07;;;;;;;0.00;0.00;;;28.20;53.70;;;;;;5000584;28;20026;-78
2023/08/22 13:03:33;;;;;;;0.10;0.10;;;28.30;53.40;;;;;;5000884;28;20101;-78
2023/08/22 13:06:00;;;;;;;0.00;0.00;;;28.30;53.80;;;;;;5000551;28;20058;-78
2023/08/22 13:08:26;;;;;;;0.08;0.08;;;28.40;53.00;;;;;;5000196;28;20054;-78
2023/08/22 13:10:54;;;;;;;0.08;0.08;;;28.40;54.30;;;;;;5000690;28;20048;-78
2023/08/22 13:13:20;;;;;;;0.00;0.00;;;28.30;52.40;;;;;;4998935;28;20077;-78
2023/08/22 13:15:47;;;;;;;0.00;0.00;;;28.30;53.20;;;;;;5000523;28;20464;-78
2023/08/22 13:18:12;;;;;;;0.10;0.10;;;28.40;53.40;;;;;;5000144;28;20099;-78
2023/08/22 13:20:38;;;;;;;0.00;0.00;;;28.30;51.50;;;;;;5000261;28;20022;-78
2023/08/22 13:23:03;;;;;;;0.05;0.05;;;28.30;52.80;;;;;;4998718;28;20038;-78
2023/08/22 13:25:29;;;;;;;0.00;0.00;;;28.40;52.60;;;;;;5000225;28;20527;-78
2023/08/22 13:27:55;;;;;;;0.00;0.00;;;28.40;52.60;;;;;;4998535;28;20037;-78
2023/08/22 13:30:21;;;;;;;0.03;0.03;;;28.50;53.50;;;;;;4999885;28;20022;-78
2023/08/22 13:32:46;;;;;;;0.08;0.08;;;28.60;53.10;;;;;;4999836;28;20138;-79
2023/08/22 13:35:15;;;;;;;0.00;0.00;;;28.50;52.70;;;;;;4999679;28;20049;-79
2023/08/22 13:37:44;;;;;;;0.10;0.10;;;28.60;53.50;;;;;;4986871;28;20360;-79
2023/08/22 13:40:10;;;;;;;0.00;0.00;;;28.60;53.20;;;;;;4978862;28;20038;-78
2023/08/22 13:42:39;;;;;;;0.03;0.03;;;28.60;52.40;;;;;;4980517;28;20043;-78
2023/08/22 13:45:10;;;;;;;0.05;0.05;;;28.60;52.80;;;;;;4978862;28;20038;-78
2023/08/22 13:47:37;;;;;;;0.00;0.00;;;28.70;53.30;;;;;;4978904;28;20106;-78
2023/08/22 13:50:04;;;;;;;0.00;0.00;;;28.70;53.50;;;;;;4980350;28;20034;-78
2023/08/22 13:52:29;;;;;;;0.00;0.00;;;28.70;52.90;;;;;;4980183;28;20015;-78
2023/08/22 13:54:55;;;;;;;0.00;0.00;;;28.70;52.70;;;;;;4980167;28;20101;-78
2023/08/22 13:57:21;;;;;;;0.03;0.03;;;28.70;53.70;;;;;;4980210;28;20027;-79
2023/08/22 13:59:46;;;;;;;0.00;0.00;;;28.60;53.60;;;;;;4980091;28;20031;-78
2023/08/22 14:02:12;;;;;;;0.00;0.00;;;28.60;53.60;;;;;;4985047;28;20034;-78
2023/08/22 14:04:37;;;;;;;0.10;0.10;;;28.50;53.70;;;;;;4999311;28;20027;-78
2023/08/22 14:07:03;;;;;;;0.00;0.00;;;28.40;54.30;;;;;;4999483;28;20034;-78
2023/08/22 14:09:29;;;;;;;0.00;0.00;;;28.50;54.40;;;;;;4999350;28;20037;-78
2023/08/22 14:11:54;;;;;;;0.10;0.10;;;28.50;54.10;;;;;;5014361;28;20053;-78
2023/08/22 14:14:21;;;;;;;0.00;0.00;;;28.60;54.90;;;;;;4999221;28;20026;-78
2023/08/22 14:16:47;;;;;;;0.00;0.00;;;28.50;54.00;;;;;;5014360;28;20042;-79
2023/08/22 14:19:13;;;;;;;0.03;0.03;;;28.40;54.70;;;;;;4999261;28;20058;-78
2023/08/22 14:21:39;;;;;;;0.00;0.00;;;28.50;54.80;;;;;;4998916;28;20077;-79
2023/08/22 14:24:04;;;;;;;0.00;0.00;;;28.50;55.00;;;;;;4998969;28;20034;-78
2023/08/22 14:26:30;;;;;;;0.00;0.00;;;28.60;55.90;;;;;;4999094;28;20489;-78
2023/08/22 14:28:56;;;;;;;0.10;0.10;;;28.60;54.80;;;;;;5013847;28;20034;-78
2023/08/22 14:31:22;;;;;;;0.00;0.00;;;28.50;55.10;;;;;;4997500;28;20053;-78
2023/08/22 14:33:47;;;;;;;0.00;0.00;;;28.40;55.20;;;;;;5013346;28;20093;-78
2023/08/22 14:36:13;;;;;;;0.10;0.10;;;28.40;55.70;;;;;;4998894;28;20023;-78
2023/08/22 14:38:38;;;;;;;0.00;0.00;;;28.30;55.70;;;;;;4998744;28;20083;-78
2023/08/22 14:41:04;;;;;;;0.10;0.00;;;28.30;55.60;;;;;;4998762;28;20121;-78
2023/08/22 14:43:29;;;;;;;0.00;0.00;;;28.40;55.70;;;;;;5013719;28;20030;-78
2023/08/22 14:45:56;;;;;;;0.10;0.10;;;28.40;54.90;;;;;;4999101;28;20026;-78
2023/08/22 14:48:23;;;;;;;0.00;0.00;;;28.40;55.40;;;;;;4998496;28;20032;-78
2023/08/22 14:50:49;;;;;;;0.03;0.03;;;28.30;55.40;;;;;;4998269;28;20045;-78
2023/08/22 14:53:19;;;;;;;0.00;0.00;;;28.30;55.40;;;;;;4998416;28;20038;-78
2023/08/22 14:56:03;;;;;;;0.00;0.00;;;28.30;55.70;;;;;;5013603;28;20393;-78
2023/08/22 14:58:46;;;;;;;0.00;0.00;;;28.30;55.50;;;;;;4998791;28;20113;-78
2023/08/22 15:01:14;;;;;;;0.00;0.00;;;28.30;55.80;;;;;;4998090;28;20033;-78
2023/08/22 15:03:40;;;;;;;0.00;0.00;;;28.30;55.90;;;;;;4981464;28;20478;-78
2023/08/22 15:06:07;;;;;;;0.00;0.00;;;28.30;56.50;;;;;;4978196;28;20045;-78
2023/08/22 15:08:33;;;;;;;0.10;0.10;;;28.30;56.00;;;;;;4979124;28;20483;-78
2023/08/22 15:11:00;;;;;;;0.00;0.00;;;28.30;55.70;;;;;;4978975;28;20023;-78
2023/08/22 15:13:28;;;;;;;0.10;0.10;;;28.30;55.90;;;;;;4979306;28;20393;-78
2023/08/22 15:15:55;;;;;;;0.00;0.00;;;28.30;55.90;;;;;;4979379;28;20031;-78
2023/08/22 15:18:22;;;;;;;0.00;0.00;;;28.20;55.90;;;;;;4977737;28;20030;-78
2023/08/22 15:20:49;;;;;;;0.00;0.00;;;28.20;55.90;;;;;;4977419;28;20150;-78
2023/08/22 15:23:15;;;;;;;0.00;0.00;;;28.20;55.90;;;;;;4977490;28;20038;-78
2023/08/22 15:25:40;;;;;;;0.08;0.08;;;28.10;56.60;;;;;;4979076;28;20394;-78
2023/08/22 15:28:06;;;;;;;0.00;0.00;;;28.10;56.60;;;;;;4978895;28;20019;-78
2023/08/22 15:30:34;;;;;;;0.00;0.00;;;28.10;56.40;;;;;;4978575;28;20050;-78
2023/08/22 15:33:00;;;;;;;0.10;0.10;;;28.10;56.30;;;;;;4989439;28;20081;-78
2023/08/22 15:35:26;;;;;;;0.03;0.03;;;28.10;56.10;;;;;;4996156;28;20030;-78
2023/08/22 15:37:53;;;;;;;0.00;0.00;;;28.00;57.10;;;;;;4996828;28;20023;-78
2023/08/22 15:40:19;;;;;;;0.00;0.00;;;28.10;57.20;;;;;;4996180;28;20070;-78
2023/08/22 15:42:44;;;;;;;0.00;0.00;;;28.10;56.90;;;;;;4979246;28;20570;-78
2023/08/22 15:45:10;;;;;;;0.00;0.00;;;28.00;57.20;;;;;;4978793;28;20105;-78
2023/08/22 15:47:36;;;;;;;0.00;0.00;;;28.00;57.20;;;;;;4978659;28;20026;-78
2023/08/22 15:50:02;;;;;;;0.00;0.00;;;28.00;57.40;;;;;;4977583;28;20029;-78
2023/08/22 15:52:28;;;;;;;0.00;0.00;;;28.00;57.40;;;;;;4978460;28;20023;-78
2023/08/22 15:54:53;;;;;;;0.00;0.00;;;28.00;57.00;;;;;;4978720;28;20027;-78
2023/08/22 15:57:19;;;;;;;0.17;0.00;;;28.00;57.30;;;;;;4978904;28;20493;-78
2023/08/22 15:59:45;;;;;;;0.00;0.00;;;27.90;57.50;;;;;;4978575;28;20057;-78
2023/08/22 16:02:10;;;;;;;0.00;0.00;;;27.90;57.20;;;;;;4982953;28;20023;-78
2023/08/22 16:04:36;;;;;;;0.00;0.00;;;27.90;57.50;;;;;;5007820;28;20034;-80
2023/08/22 16:07:01;;;;;;;0.00;0.00;;;27.90;57.30;;;;;;5001597;28;20037;-79
2023/08/22 16:09:27;;;;;;;0.10;0.00;;;27.80;56.60;;;;;;5001601;28;20073;-79
2023/08/22 16:11:53;;;;;;;0.00;0.00;;;27.80;57.10;;;;;;5000296;28;20512;-78
2023/08/22 16:14:19;;;;;;;0.00;0.00;;;27.70;56.90;;;;;;5001822;28;20034;-79
2023/08/22 16:16:44;;;;;;;0.00;0.00;;;27.70;56.90;;;;;;5001597;28;20041;-79
2023/08/22 16:19:10;;;;;;;0.00;0.00;;;27.60;57.00;;;;;;5001362;28;20030;-78
2023/08/22 16:21:35;;;;;;;0.00;0.00;;;27.70;57.00;;;;;;5016254;28;20030;-79
2023/08/22 16:24:02;;;;;;;0.00;0.00;;;27.60;56.50;;;;;;5016355;28;20519;-79
2023/08/22 16:26:28;;;;;;;0.00;0.00;;;27.60;56.70;;;;;;5001399;28;20037;-79
2023/08/22 16:28:55;;;;;;;0.10;0.00;;;27.50;55.80;;;;;;5001000;28;20030;-79
2023/08/22 16:31:25;;;;;;;0.00;0.00;;;27.40;56.20;;;;;;5001015;28;20169;-79
2023/08/22 16:33:51;;;;;;;0.00;0.00;;;27.40;56.10;;;;;;5016054;28;20543;-79
2023/08/22 16:36:17;;;;;;;0.00;0.00;;;27.30;56.10;;;;;;5001122;28;20102;-79
2023/08/22 16:38:42;;;;;;;0.00;0.00;;;27.20;56.80;;;;;;5001152;28;20035;-79
2023/08/22 16:41:08;;;;;;;0.00;0.00;;;27.10;56.70;;;;;;5001061;28;20033;-78
2023/08/22 16:43:34;;;;;;;0.00;0.00;;;27.00;57.00;;;;;;5001329;28;20026;-78
2023/08/22 16:45:59;;;;;;;0.00;0.00;;;27.00;57.30;;;;;;5000921;28;20035;-79
2023/08/22 16:48:25;;;;;;;0.00;0.00;;;27.00;57.10;;;;;;5015891;28;20038;-79
2023/08/22 16:50:53;;;;;;;0.00;0.00;;;27.10;57.20;;;;;;5000761;28;20019;-79
2023/08/22 16:53:19;;;;;;;0.00;0.00;;;27.00;57.10;;;;;;5000848;28;20026;-79
2023/08/22 16:55:45;;;;;;;0.00;0.00;;;27.00;56.70;;;;;;5000631;28;20493;-79
2023/08/22 16:58:11;;;;;;;0.00;0.00;;;26.90;56.90;;;;;;5001139;28;20077;-79
2023/08/22 17:00:37;;;;;;;0.00;0.00;;;26.90;56.80;;;;;;5012378;28;20019;-79
2023/08/22 17:03:03;;;;;;;0.00;0.00;;;26.90;56.70;;;;;;4993243;28;20041;-79
2023/08/22 17:05:29;;;;;;;0.00;0.00;;;26.80;56.60;;;;;;5000394;28;20030;-79
2023/08/22 17:07:55;;;;;;;0.00;0.00;;;26.60;56.90;;;;;;5015454;28;20035;-79
2023/08/22 17:10:22;;;;;;;0.00;0.00;;;26.50;57.10;;;;;;4999403;28;20022;-79
2023/08/22 17:12:52;;;;;;;0.00;0.00;;;26.50;57.60;;;;;;5000551;28;20034;-79
2023/08/22 17:15:21;;;;;;;0.00;0.00;;;26.50;57.90;;;;;;4998422;28;20033;-79
2023/08/22 17:17:48;;;;;;;0.00;0.00;;;26.40;57.90;;;;;;5000446;28;20084;-79
2023/08/22 17:20:13;;;;;;;0.00;0.00;;;26.40;58.00;;;;;;5000414;28;20072;-79